Nunarsuit

KL  EN  DA
ASIAQ
Weather Now GREENLAND SURVEY
Updated [WGT/WGST] Temperature [°C] Wind [m/s] Air pressure [hPa] Relative humidity [%] Precipitation [mm]
Present Wind chill Speed Max
25.02 08:00-7,4-15,36,7 ⇐8,8101174n/a
25.02 07:00-7,6-15,56,7 ⇐8,8101173n/a
25.02 06:00-7,1-14,66,2 ⇐7,7101173n/a
25.02 05:00-6,9-13,24,6 ⇐7,2101174n/a
25.02 04:00-7,0-12,03,1 ⇐4,6101276n/a
25.02 03:00-7,1-13,14,1 ⇓7,2101279n/a
25.02 02:00-6,5-12,44,1 ⇓5,7101269n/a
25.02 01:00-6,3-12,14,1 ⇘9,3101268n/a
25.02 00:00-7,1-15,17,2 ⇘9,8101281n/a
24.02 23:00-6,5-15,910,8 ⇘14,9101277n/a
24.02 22:00-6,3-15,911,3 ⇘14,4101271n/a
24.02 21:00-6,4-16,211,8 ⇘16,5101170n/a
24.02 20:00-6,1-16,012,4 ⇘17,0101059n/a
24.02 19:00-5,9-16,314,4 ⇘18,5101057n/a
24.02 18:00-6,6-16,612,4 ⇘18,0100972n/a
24.02 17:00-7,1-18,516,5 ⇒23,2100883n/a
24.02 16:00-5,9-16,916,5 ⇘20,6100662n/a
24.02 15:00-6,2-17,417,0 ⇘21,1100572n/a
24.02 14:00-6,1-17,417,5 ⇒24,2100470n/a
24.02 13:00-7,1-17,512,9 ⇘18,5100279n/a
24.02 12:00-7,0-18,517,0 ⇘25,7100182n/a
24.02 11:00-6,4-18,621,1 ⇘28,3100084n/a
24.02 10:00-6,0-19,025,7 ⇘31,999872n/a
24.02 09:00-6,5-15,810,3 ⇒20,699785n/a
24.02 08:00-7,3-16,810,3 ⇘13,499950n/a
Position: (60.76361111,-48.454444444)

[Back]